Time;durP1;ratioP1;P1;durP2;ratioP2;P2;SDS_P1;SDS_P2;PMS_P1;PMS_P2;Temp;Humidity;BMP_temperature;BMP_pressure;BME280_temperature;BME280_humidity;BME280_pressure;Samples;Min_cycle;Max_cycle;Signal;HPM_P1;HPM_P2
2021/03/14 00:00:55;;;;;;;31.12;19.12;;;;;;;3.53;89.33;98421.38;1795064;78;21673;-53
2021/03/14 00:03:28;;;;;;;31.10;19.73;;;;;;;3.47;89.39;98406.76;1794854;79;21280;-56
2021/03/14 00:05:57;;;;;;;32.03;19.57;;;;;;;3.47;89.46;98420.79;1795191;80;21698;-55
2021/03/14 00:08:28;;;;;;;30.08;18.92;;;;;;;3.44;89.57;98414.74;1794988;78;21118;-59
2021/03/14 00:11:06;;;;;;;33.88;18.45;;;;;;;3.39;89.70;98413.73;1794952;80;21272;-55
2021/03/14 00:13:36;;;;;;;33.35;19.60;;;;;;;3.35;89.86;98411.48;1794930;78;21142;-58
2021/03/14 00:16:07;;;;;;;29.42;18.05;;;;;;;3.36;89.93;98414.89;1795002;80;21152;-55
2021/03/14 00:18:41;;;;;;;31.85;19.50;;;;;;;3.34;90.08;98400.84;1794833;78;21150;-60
2021/03/14 00:21:10;;;;;;;29.67;18.48;;;;;;;3.33;90.13;98399.51;1795167;78;21526;-55
2021/03/14 00:23:38;;;;;;;28.30;17.75;;;;;;;3.32;90.22;98398.65;1794803;80;21119;-60
2021/03/14 00:26:07;;;;;;;31.33;19.20;;;;;;;3.29;90.28;98390.05;1794990;80;21684;-57
2021/03/14 00:28:35;;;;;;;33.65;19.02;;;;;;;3.23;90.54;98391.59;1794906;78;21173;-56
2021/03/14 00:31:03;;;;;;;24.67;17.00;;;;;;;3.21;90.70;98379.20;1794925;80;21268;-59
2021/03/14 00:33:31;;;;;;;30.90;18.67;;;;;;;3.21;90.85;98375.80;1794858;80;21103;-58
2021/03/14 00:35:59;;;;;;;31.00;19.85;;;;;;;3.22;90.84;98391.13;1794947;80;21150;-56
2021/03/14 00:38:26;;;;;;;27.77;18.55;;;;;;;3.25;90.77;98389.08;1813569;78;21142;-55
2021/03/14 00:40:54;;;;;;;31.35;18.92;;;;;;;3.22;90.75;98389.84;1799415;78;21115;-59
2021/03/14 00:43:21;;;;;;;29.95;17.85;;;;;;;3.21;90.77;98382.17;1812011;78;21135;-60
2021/03/14 00:45:49;;;;;;;30.30;19.02;;;;;;;3.17;90.86;98391.39;1809209;78;21163;-56
2021/03/14 00:48:19;;;;;;;33.35;19.15;;;;;;;3.18;90.90;98384.22;1809021;78;21561;-55
2021/03/14 00:50:47;;;;;;;30.12;18.30;;;;;;;3.19;90.85;98395.27;1812578;78;21138;-58
2021/03/14 00:53:16;;;;;;;35.70;20.90;;;;;;;3.20;90.81;98402.95;1810385;78;21345;-55
2021/03/14 00:55:48;;;;;;;34.88;21.57;;;;;;;3.21;90.70;98388.13;1809314;78;21361;-56
2021/03/14 00:58:16;;;;;;;32.58;20.02;;;;;;;3.20;90.64;98387.66;1802502;78;21282;-58
2021/03/14 01:00:44;;;;;;;30.57;19.65;;;;;;;3.18;90.62;98395.69;1809117;78;21258;-56
2021/03/14 01:03:13;;;;;;;32.98;17.40;;;;;;;3.17;90.71;98387.56;1806167;78;21136;-55
2021/03/14 01:05:42;;;;;;;24.85;16.57;;;;;;;3.17;90.74;98379.92;1809156;78;21248;-57
2021/03/14 01:08:17;;;;;;;31.93;17.25;;;;;;;3.18;90.71;98384.59;1811676;78;21256;-55
2021/03/14 01:10:46;;;;;;;28.25;18.65;;;;;;;3.19;90.61;98385.94;1811784;78;21146;-56
2021/03/14 01:13:17;;;;;;;29.18;18.67;;;;;;;3.17;90.59;98376.51;1819874;78;21150;-58
2021/03/14 01:15:45;;;;;;;30.08;18.07;;;;;;;3.14;90.62;98384.93;1817707;78;21299;-56
2021/03/14 01:18:13;;;;;;;30.57;18.70;;;;;;;3.07;90.83;98398.30;1794541;78;21158;-56
2021/03/14 01:20:42;;;;;;;27.75;17.70;;;;;;;3.03;90.95;98392.25;1794337;80;21300;-58
2021/03/14 01:23:10;;;;;;;29.95;18.92;;;;;;;3.04;91.09;98382.91;1809745;78;21128;-58
2021/03/14 01:25:37;;;;;;;31.37;18.65;;;;;;;3.03;91.13;98376.09;1827238;78;21299;-55
2021/03/14 01:28:06;;;;;;;29.90;18.10;;;;;;;3.01;91.26;98357.33;1827096;78;21154;-55
2021/03/14 01:30:34;;;;;;;29.70;19.17;;;;;;;2.97;91.52;98365.69;1827384;78;21134;-55
2021/03/14 01:33:01;;;;;;;25.88;16.90;;;;;;;2.94;91.57;98357.95;1800547;78;21589;-57
2021/03/14 01:35:29;;;;;;;27.00;16.75;;;;;;;2.91;91.83;98354.91;1794789;80;21138;-54
2021/03/14 01:37:57;;;;;;;24.30;17.23;;;;;;;2.88;92.04;98348.44;1795038;78;21560;-56
2021/03/14 01:40:25;;;;;;;29.70;18.77;;;;;;;2.88;92.11;98353.54;1794783;78;21289;-58
2021/03/14 01:42:53;;;;;;;28.80;18.12;;;;;;;2.89;92.16;98351.84;1794863;80;22193;-54
2021/03/14 01:45:21;;;;;;;28.00;17.77;;;;;;;2.88;92.15;98369.25;1794925;80;21307;-57
2021/03/14 01:47:53;;;;;;;32.08;18.48;;;;;;;2.85;92.09;98363.64;1795693;78;21130;-54
2021/03/14 01:50:25;;;;;;;31.07;18.20;;;;;;;2.83;92.19;98366.12;1805822;78;21249;-58
2021/03/14 01:52:55;;;;;;;29.37;16.62;;;;;;;2.83;92.30;98359.76;1802313;78;21146;-58
2021/03/14 01:55:24;;;;;;;28.57;17.17;;;;;;;2.86;92.29;98356.86;1827640;77;21621;-56
2021/03/14 01:57:55;;;;;;;26.75;17.65;;;;;;;2.82;92.28;98354.22;1827341;78;21114;-56
2021/03/14 02:00:26;;;;;;;30.70;18.37;;;;;;;2.79;92.44;98354.52;1827166;77;21131;-61
2021/03/14 02:02:54;;;;;;;29.70;19.40;;;;;;;2.75;92.59;98365.02;1796263;78;21189;-57
2021/03/14 02:05:23;;;;;;;29.27;18.77;;;;;;;2.72;92.67;98362.39;1794797;78;21162;-57
2021/03/14 02:07:54;;;;;;;27.27;17.67;;;;;;;2.69;92.83;98368.63;1794944;80;21146;-55
2021/03/14 02:10:28;;;;;;;29.20;17.27;;;;;;;2.68;92.90;98355.45;1794763;80;21114;-58
2021/03/14 02:13:36;;;;;;;31.57;19.15;;;;;;;2.69;92.91;98357.17;1794930;79;21750;-59
2021/03/14 02:16:18;;;;;;;29.15;19.00;;;;;;;2.71;92.86;98363.19;1794693;78;21153;-54
2021/03/14 02:18:54;;;;;;;33.13;19.17;;;;;;;2.69;92.97;98353.34;1795101;79;21565;-58
2021/03/14 02:21:23;;;;;;;29.65;18.75;;;;;;;2.67;92.92;98366.47;1794889;80;21251;-52
2021/03/14 02:24:00;;;;;;;30.92;19.55;;;;;;;2.66;93.04;98367.27;1794741;78;21284;-55
2021/03/14 02:27:00;;;;;;;28.57;16.67;;;;;;;2.64;93.12;98366.34;1794830;80;21296;-56
2021/03/14 02:29:29;;;;;;;30.20;18.73;;;;;;;2.59;93.33;98353.86;1794760;79;21220;-58
2021/03/14 02:31:57;;;;;;;33.83;19.87;;;;;;;2.54;93.57;98354.98;1794812;80;21158;-57
2021/03/14 02:34:33;;;;;;;31.12;19.05;;;;;;;2.52;93.66;98353.20;1794743;78;21150;-57
2021/03/14 02:37:03;;;;;;;28.95;18.75;;;;;;;2.51;93.79;98354.03;1812438;78;21510;-56
2021/03/14 02:39:32;;;;;;;31.52;19.02;;;;;;;2.50;93.96;98348.49;1795834;78;21530;-57
2021/03/14 02:42:01;;;;;;;28.90;17.87;;;;;;;2.49;94.06;98364.57;1794898;79;21257;-52
2021/03/14 02:44:37;;;;;;;32.33;18.35;;;;;;;2.44;94.38;98352.09;1825078;78;21432;-55
2021/03/14 02:47:07;;;;;;;32.78;19.17;;;;;;;2.41;94.44;98368.55;1794870;80;21279;-53
2021/03/14 02:49:36;;;;;;;30.68;17.37;;;;;;;2.37;94.77;98353.59;1795085;78;21676;-59
2021/03/14 02:52:05;;;;;;;37.05;18.80;;;;;;;2.36;94.89;98348.88;1803723;77;21134;-56
2021/03/14 02:54:37;;;;;;;30.50;19.40;;;;;;;2.33;94.99;98364.06;1800127;78;21169;-57
2021/03/14 02:57:07;;;;;;;36.80;21.00;;;;;;;2.32;95.21;98352.57;1820982;77;21653;-56
2021/03/14 02:59:36;;;;;;;28.00;17.23;;;;;;;2.29;95.31;98358.42;1813134;78;21696;-58
2021/03/14 03:02:05;;;;;;;30.65;18.95;;;;;;;2.26;95.60;98371.02;1807401;78;21193;-55
2021/03/14 03:04:34;;;;;;;29.95;18.00;;;;;;;2.23;95.80;98373.88;1776073;80;21130;-58
2021/03/14 03:07:02;;;;;;;34.23;20.55;;;;;;;2.21;96.13;98370.00;1802351;77;21170;-56
2021/03/14 03:09:31;;;;;;;28.47;17.75;;;;;;;2.17;96.28;98355.05;1811280;78;21131;-54
2021/03/14 03:11:58;;;;;;;27.13;18.23;;;;;;;2.14;96.62;98341.36;1822673;77;21542;-55
2021/03/14 03:14:30;;;;;;;25.62;17.17;;;;;;;2.12;96.77;98342.98;1817430;78;21146;-58
2021/03/14 03:16:59;;;;;;;31.07;18.87;;;;;;;2.12;96.93;98349.34;1827527;78;21289;-57
2021/03/14 03:19:28;;;;;;;29.15;19.57;;;;;;;2.13;96.88;98358.70;1827291;78;21291;-55
2021/03/14 03:21:56;;;;;;;30.88;18.77;;;;;;;2.13;96.81;98363.78;1793139;79;21529;-57
2021/03/14 03:24:23;;;;;;;28.62;19.10;;;;;;;2.12;96.82;98354.44;1795018;80;21173;-54
2021/03/14 03:26:51;;;;;;;27.85;17.73;;;;;;;2.09;97.01;98358.16;1803070;78;21576;-59
2021/03/14 03:29:19;;;;;;;34.38;20.80;;;;;;;2.06;97.31;98366.55;1822871;78;21324;-53
2021/03/14 03:31:47;;;;;;;31.25;20.08;;;;;;;2.03;97.24;98372.78;1812485;78;21139;-55
2021/03/14 03:34:15;;;;;;;34.63;22.05;;;;;;;2.04;97.39;98362.22;1813082;78;21568;-58
2021/03/14 03:36:43;;;;;;;32.50;20.62;;;;;;;2.08;97.41;98346.22;1812970;79;21243;-54
2021/03/14 03:39:14;;;;;;;37.20;21.87;;;;;;;2.10;97.24;98357.33;1813111;78;21142;-56
2021/03/14 03:41:50;;;;;;;38.00;22.75;;;;;;;2.08;97.29;98348.77;1812955;78;21131;-56
2021/03/14 03:44:23;;;;;;;35.92;22.22;;;;;;;2.06;97.45;98344.02;1813152;79;21147;-56
2021/03/14 03:46:56;;;;;;;37.65;23.98;;;;;;;2.07;97.63;98333.05;1813006;78;21123;-58
2021/03/14 03:49:29;;;;;;;38.95;23.35;;;;;;;2.08;97.73;98348.35;1813028;78;21737;-54
2021/03/14 03:51:59;;;;;;;41.23;23.62;;;;;;;2.03;97.81;98350.28;1813156;79;21665;-56
2021/03/14 03:54:29;;;;;;;38.50;22.10;;;;;;;2.01;98.18;98332.82;1812896;79;21282;-58
2021/03/14 03:56:59;;;;;;;42.80;25.48;;;;;;;2.03;98.23;98295.57;1802143;79;21277;-55
2021/03/14 03:59:30;;;;;;;40.35;23.85;;;;;;;2.08;98.32;98347.49;1812897;78;21146;-58
2021/03/14 04:01:59;;;;;;;44.18;25.68;;;;;;;2.13;98.17;98338.34;1813009;79;21135;-54
2021/03/14 04:04:28;;;;;;;41.90;23.32;;;;;;;2.12;98.06;98301.84;1813105;79;21147;-58
2021/03/14 04:06:57;;;;;;;42.67;25.08;;;;;;;2.10;98.15;98317.88;1813033;79;21130;-55
2021/03/14 04:09:25;;;;;;;44.27;26.15;;;;;;;2.06;98.34;98325.83;1813034;79;21139;-52
2021/03/14 04:11:54;;;;;;;43.65;26.00;;;;;;;2.06;98.44;98337.66;1812910;79;21284;-57
2021/03/14 04:14:23;;;;;;;48.92;28.30;;;;;;;2.13;98.56;98344.28;1813077;78;21135;-58
2021/03/14 04:16:52;;;;;;;51.45;28.55;;;;;;;2.12;98.20;98331.11;1801820;79;21297;-58
2021/03/14 04:19:24;;;;;;;48.68;27.93;;;;;;;2.15;98.32;98320.17;1813015;79;21274;-57
2021/03/14 04:21:54;;;;;;;54.63;30.08;;;;;;;2.22;98.30;98333.56;1812984;78;21261;-58
2021/03/14 04:24:23;;;;;;;51.80;27.75;;;;;;;2.24;97.95;98347.60;1812962;79;21134;-56
2021/03/14 04:26:51;;;;;;;53.90;28.47;;;;;;;2.26;97.89;98345.56;1813084;79;21700;-55
2021/03/14 04:29:20;;;;;;;51.53;29.42;;;;;;;2.25;97.87;98332.39;1815472;78;21186;-53
2021/03/14 04:31:49;;;;;;;52.98;29.75;;;;;;;2.32;97.95;98343.25;1827471;78;21145;-56
2021/03/14 04:34:19;;;;;;;50.90;29.63;;;;;;;2.39;97.62;98331.56;1827235;77;21130;-54
2021/03/14 04:36:48;;;;;;;53.10;28.57;;;;;;;2.44;97.41;98330.03;1827372;77;21244;-57
2021/03/14 04:39:16;;;;;;;52.60;28.40;;;;;;;2.48;97.22;98336.11;1827449;78;21523;-60
2021/03/14 04:41:46;;;;;;;53.63;31.35;;;;;;;2.51;96.89;98341.30;1827467;78;21765;-54
2021/03/14 04:44:14;;;;;;;54.80;31.57;;;;;;;2.46;96.80;98340.28;1827337;77;21274;-55
2021/03/14 04:46:44;;;;;;;58.98;32.15;;;;;;;2.46;96.78;98336.46;1809345;78;21687;-58
2021/03/14 04:49:14;;;;;;;56.23;30.88;;;;;;;2.41;96.58;98327.39;1827183;77;21661;-57
2021/03/14 04:51:46;;;;;;;51.00;29.18;;;;;;;2.27;96.92;98329.91;1827497;78;21574;-59
2021/03/14 04:54:14;;;;;;;52.65;29.98;;;;;;;2.22;97.27;98332.70;1827502;78;21146;-54
2021/03/14 04:56:44;;;;;;;52.43;30.20;;;;;;;2.25;97.45;98326.03;1827319;78;21118;-57
2021/03/14 04:59:13;;;;;;;57.08;31.77;;;;;;;2.32;97.37;98317.78;1827203;77;21125;-58
2021/03/14 05:01:44;;;;;;;52.90;28.23;;;;;;;2.29;97.18;98332.08;1827301;77;21107;-57
2021/03/14 05:04:17;;;;;;;51.95;27.27;;;;;;;2.22;97.29;98338.66;1827348;78;21291;-58
2021/03/14 05:06:45;;;;;;;57.73;30.48;;;;;;;2.18;97.63;98317.72;1827404;77;21542;-61
2021/03/14 05:09:15;;;;;;;59.15;32.42;;;;;;;2.26;97.77;98331.98;1817060;78;21467;-53
2021/03/14 05:11:45;;;;;;;53.68;29.18;;;;;;;2.32;97.63;98333.06;1812487;78;21161;-61
2021/03/14 05:14:15;;;;;;;53.98;31.73;;;;;;;2.42;97.36;98325.70;1812617;78;21659;-57
2021/03/14 05:16:45;;;;;;;52.88;29.70;;;;;;;2.44;97.03;98282.06;1810638;78;21523;-59
2021/03/14 05:19:15;;;;;;;52.33;29.05;;;;;;;2.41;96.95;98316.34;1809215;78;21127;-57
2021/03/14 05:21:45;;;;;;;52.67;27.73;;;;;;;2.42;97.01;98335.89;1809343;78;21107;-52
2021/03/14 05:24:14;;;;;;;51.98;28.50;;;;;;;2.43;96.80;98342.32;1778963;78;21129;-53
2021/03/14 05:26:46;;;;;;;50.20;27.70;;;;;;;2.42;96.79;98344.42;1810173;78;21548;-54
2021/03/14 05:29:16;;;;;;;47.35;27.37;;;;;;;2.45;96.65;98334.74;1809103;78;21560;-57
2021/03/14 05:31:44;;;;;;;42.48;22.45;;;;;;;2.47;96.44;98336.91;1805604;79;21537;-59
2021/03/14 05:34:17;;;;;;;40.98;25.30;;;;;;;2.39;96.18;98357.92;1806665;77;21737;-57
2021/03/14 05:36:46;;;;;;;38.58;23.52;;;;;;;2.28;96.45;98326.13;1809804;79;21111;-62
2021/03/14 05:39:14;;;;;;;41.08;22.85;;;;;;;2.24;96.61;98351.04;1812231;78;21293;-58
2021/03/14 05:41:43;;;;;;;44.27;24.80;;;;;;;2.24;96.57;98339.58;1812441;79;21281;-64
2021/03/14 05:44:12;;;;;;;38.88;23.62;;;;;;;2.24;96.77;98351.04;1807749;79;21258;-62
2021/03/14 05:46:41;;;;;;;37.93;22.67;;;;;;;2.23;97.10;98353.11;1803790;79;21109;-62
2021/03/14 05:49:09;;;;;;;40.00;21.30;;;;;;;2.29;97.10;98326.59;1804790;79;21261;-66
2021/03/14 05:51:44;;;;;;;31.93;19.85;;;;;;;2.30;96.98;98344.01;1806937;79;21126;-60
2021/03/14 05:54:15;;;;;;;33.33;18.77;;;;;;;2.30;97.08;98337.23;1798273;79;21158;-62
2021/03/14 05:56:47;;;;;;;33.00;20.48;;;;;;;2.34;96.54;98344.17;1780754;79;21133;-59
2021/03/14 05:59:18;;;;;;;27.45;15.90;;;;;;;2.32;96.64;98353.84;1803766;78;21274;-62
2021/03/14 06:01:51;;;;;;;28.05;17.07;;;;;;;2.31;96.52;98312.22;1789405;79;21609;-57
2021/03/14 06:04:19;;;;;;;30.45;17.48;;;;;;;2.31;96.41;98321.12;1789176;79;21306;-64
2021/03/14 06:06:47;;;;;;;31.07;19.65;;;;;;;2.30;96.57;98324.50;1789127;80;21116;-62
2021/03/14 06:09:17;;;;;;;27.07;17.10;;;;;;;2.35;96.56;98320.42;1799990;79;21118;-63
2021/03/14 06:11:45;;;;;;;27.32;17.40;;;;;;;2.40;96.28;98323.13;1796217;79;21150;-62
2021/03/14 06:14:13;;;;;;;26.95;16.65;;;;;;;2.47;96.30;98315.26;1798777;79;21304;-59
2021/03/14 06:16:42;;;;;;;29.70;18.30;;;;;;;2.58;96.03;98325.41;1821636;79;21276;-60
2021/03/14 06:19:10;;;;;;;25.75;17.32;;;;;;;2.71;95.78;98294.40;1816707;79;21140;-65
2021/03/14 06:21:38;;;;;;;23.83;16.17;;;;;;;2.83;95.04;98340.65;1803488;79;21293;-62
2021/03/14 06:24:10;;;;;;;25.70;16.73;;;;;;;2.75;94.45;98329.36;1806183;79;21169;-62
2021/03/14 06:26:49;;;;;;;23.92;14.63;;;;;;;2.75;94.42;98310.25;1806752;79;21542;-57
2021/03/14 06:29:21;;;;;;;26.00;16.95;;;;;;;2.68;94.41;98346.53;1803367;79;21336;-56
2021/03/14 06:31:56;;;;;;;30.10;17.17;;;;;;;2.73;94.43;98305.51;1795884;78;21276;-63
2021/03/14 06:34:38;;;;;;;25.72;16.52;;;;;;;2.84;93.96;98314.75;1796551;79;21105;-68
2021/03/14 06:37:15;;;;;;;25.37;15.98;;;;;;;3.09;94.06;98336.76;1798369;78;21100;-62
2021/03/14 06:39:46;;;;;;;28.47;15.95;;;;;;;3.29;92.87;98332.68;1796137;79;21709;-61
2021/03/14 06:42:34;;;;;;;24.23;15.78;;;;;;;3.51;91.86;98341.80;1795074;79;21093;-63
2021/03/14 06:45:09;;;;;;;24.98;16.12;;;;;;;3.70;91.22;98355.13;1798311;79;21135;-62
2021/03/14 06:47:47;;;;;;;26.85;17.48;;;;;;;3.88;90.26;98352.64;1789744;79;21575;-58
2021/03/14 06:50:29;;;;;;;24.57;15.90;;;;;;;3.95;89.20;98353.27;1789679;79;21333;-60
2021/03/14 06:53:10;;;;;;;24.72;15.80;;;;;;;3.98;88.82;98366.11;1795010;79;21084;-62
2021/03/14 06:55:41;;;;;;;25.08;15.40;;;;;;;4.00;88.51;98358.08;1798312;79;21111;-63
2021/03/14 06:58:28;;;;;;;28.90;15.53;;;;;;;4.03;88.21;98356.88;1797105;79;21293;-59
2021/03/14 07:01:21;;;;;;;24.90;16.65;;;;;;;4.02;87.58;98356.44;1798338;79;21637;-61
2021/03/14 07:03:52;;;;;;;25.05;16.73;;;;;;;3.99;87.83;98369.09;1780125;78;21222;-64
2021/03/14 07:06:26;;;;;;;24.23;14.98;;;;;;;4.04;87.50;98371.36;1813066;78;21569;-60
2021/03/14 07:08:57;;;;;;;20.95;13.10;;;;;;;4.11;87.58;98378.37;1801683;79;21660;-58
2021/03/14 07:11:41;;;;;;;23.15;15.15;;;;;;;4.07;86.88;98381.69;1787979;79;21298;-58
2021/03/14 07:14:15;;;;;;;24.32;15.35;;;;;;;3.97;87.13;98367.33;1801746;79;21672;-61
2021/03/14 07:16:54;;;;;;;21.87;14.33;;;;;;;3.92;87.02;98346.80;1812708;79;21515;-63
2021/03/14 07:19:30;;;;;;;20.85;14.50;;;;;;;3.77;87.65;98390.63;1803868;79;21142;-62
2021/03/14 07:25:57;;;;;;;23.67;15.15;;;;;;;3.85;87.74;98358.94;1827555;77;22575;-58
2021/03/14 07:28:27;;;;;;;22.40;14.60;;;;;;;3.91;87.71;98382.92;1796589;80;21247;-63
2021/03/14 07:30:55;;;;;;;20.95;13.35;;;;;;;3.97;87.08;98360.56;1784176;80;21680;-62
2021/03/14 07:33:24;;;;;;;23.25;14.85;;;;;;;3.95;87.23;98380.48;1793597;80;21287;-63
2021/03/14 07:35:53;;;;;;;24.65;15.95;;;;;;;3.96;87.31;98363.91;1793534;80;21158;-60
2021/03/14 07:38:20;;;;;;;23.67;13.95;;;;;;;4.02;87.47;98373.03;1793366;80;21114;-60
2021/03/14 07:40:48;;;;;;;21.12;14.18;;;;;;;3.93;86.82;98333.63;1793618;80;21296;-65
2021/03/14 07:43:15;;;;;;;21.57;14.73;;;;;;;3.75;87.56;98378.65;1788622;80;21147;-60
2021/03/14 07:45:43;;;;;;;21.27;13.50;;;;;;;3.78;88.18;98370.66;1773114;80;21147;-61
2021/03/14 07:48:11;;;;;;;23.10;15.32;;;;;;;3.80;87.56;98370.29;1792997;80;21264;-62
2021/03/14 07:50:45;;;;;;;21.35;13.22;;;;;;;3.85;87.75;98364.05;1793431;80;21150;-63
2021/03/14 07:53:16;;;;;;;21.02;12.93;;;;;;;4.03;87.46;98367.52;1793584;78;21272;-63
2021/03/14 07:55:52;;;;;;;18.55;12.18;;;;;;;4.18;86.23;98378.55;1793673;80;21154;-62
2021/03/14 07:58:24;;;;;;;21.65;13.85;;;;;;;4.12;86.37;98352.42;1793685;80;21684;-58
2021/03/14 08:00:52;;;;;;;18.85;12.45;;;;;;;4.22;86.04;98355.67;1793858;80;21154;-62
2021/03/14 08:03:36;;;;;;;18.32;11.97;;;;;;;4.30;85.46;98345.65;1793469;80;21546;-62
2021/03/14 08:06:39;;;;;;;19.60;13.62;;;;;;;4.37;85.22;98352.66;1793575;80;21288;-63
2021/03/14 08:09:07;;;;;;;20.00;13.68;;;;;;;4.51;84.77;98346.21;1783972;80;21283;-59
2021/03/14 08:11:35;;;;;;;18.85;13.03;;;;;;;4.59;84.05;98353.20;1771393;79;21661;-60
2021/03/14 08:14:04;;;;;;;19.48;13.22;;;;;;;4.71;83.68;98368.84;1762361;81;21272;-62
2021/03/14 08:16:31;;;;;;;19.65;12.88;;;;;;;4.66;83.15;98359.78;1762371;81;21561;-64
2021/03/14 08:19:11;;;;;;;19.52;12.98;;;;;;;4.73;83.34;98339.95;1762231;81;21276;-60
2021/03/14 08:21:40;;;;;;;17.77;12.00;;;;;;;4.79;82.86;98368.61;1762464;80;21699;-61
2021/03/14 08:24:14;;;;;;;18.57;13.18;;;;;;;4.69;82.63;98356.02;1760274;81;21229;-61
2021/03/14 08:26:42;;;;;;;19.50;11.57;;;;;;;4.73;82.30;98335.22;1749354;82;21194;-62
2021/03/14 08:29:13;;;;;;;21.05;12.98;;;;;;;4.63;82.48;98346.94;1738537;82;21196;-64
2021/03/14 08:31:53;;;;;;;17.77;11.28;;;;;;;4.55;82.98;98355.70;1748670;81;21319;-60
2021/03/14 08:34:45;;;;;;;16.05;11.78;;;;;;;4.45;83.45;98337.13;1870580;76;22152;-62
2021/03/14 08:37:26;;;;;;;15.23;10.72;;;;;;;4.38;83.94;98369.73;1827407;78;21268;-60
2021/03/14 08:40:01;;;;;;;18.67;12.40;;;;;;;4.50;83.30;98370.05;1827516;77;21138;-64
2021/03/14 08:42:55;;;;;;;16.42;11.43;;;;;;;4.50;83.47;98371.70;1810960;77;21196;-60
2021/03/14 08:45:32;;;;;;;19.10;12.13;;;;;;;4.62;83.07;98371.16;1826547;78;21557;-59
2021/03/14 08:48:05;;;;;;;16.30;11.08;;;;;;;4.57;83.11;98396.59;1825086;77;21671;-59
2021/03/14 08:50:38;;;;;;;18.07;11.97;;;;;;;4.39;83.81;98394.44;1827518;78;21119;-59
2021/03/14 08:53:08;;;;;;;18.57;11.90;;;;;;;4.45;84.03;98389.89;1819025;78;21584;-64
2021/03/14 08:55:41;;;;;;;20.08;11.78;;;;;;;4.58;83.65;98375.34;1818369;78;21149;-63
2021/03/14 08:58:15;;;;;;;17.55;12.13;;;;;;;4.70;83.32;98386.27;1827744;78;21119;-64
2021/03/14 09:01:08;;;;;;;17.55;11.25;;;;;;;4.71;83.14;98399.52;1806929;78;21189;-59
2021/03/14 09:03:45;;;;;;;16.75;11.55;;;;;;;4.70;82.97;98387.55;1793166;78;21837;-61
2021/03/14 09:06:29;;;;;;;21.07;10.53;;;;;;;4.64;83.02;98382.30;1793452;80;21162;-58
2021/03/14 09:09:05;;;;;;;16.90;11.12;;;;;;;4.51;83.30;98353.88;1793290;79;21166;-61
2021/03/14 09:11:48;;;;;;;16.60;10.53;;;;;;;4.32;84.31;98384.45;1793526;78;21162;-61
2021/03/14 09:14:39;;;;;;;17.27;9.95;;;;;;;4.41;84.42;98380.02;1792750;79;21311;-62
2021/03/14 09:17:15;;;;;;;14.38;10.38;;;;;;;4.54;84.25;98366.72;1795073;79;21695;-60
2021/03/14 09:19:56;;;;;;;16.27;11.65;;;;;;;4.75;83.77;98372.77;1795233;79;21158;-60
2021/03/14 09:22:29;;;;;;;18.00;11.60;;;;;;;4.89;83.06;98364.17;1795500;80;21545;-62
2021/03/14 09:25:24;;;;;;;16.80;10.55;;;;;;;4.92;82.86;98361.68;1869757;76;22180;-60
2021/03/14 09:27:53;;;;;;;18.20;11.40;;;;;;;4.91;82.75;98365.47;1827534;78;21126;-62
2021/03/14 09:30:23;;;;;;;21.35;10.38;;;;;;;4.83;83.00;98352.92;1826142;77;21537;-58
2021/03/14 09:33:04;;;;;;;15.90;10.85;;;;;;;4.88;83.16;98359.87;1827410;77;21142;-60
2021/03/14 09:35:52;;;;;;;17.07;11.80;;;;;;;4.90;83.05;98356.94;1827700;78;21128;-59
2021/03/14 09:38:22;;;;;;;15.48;10.25;;;;;;;4.82;83.53;98334.59;1827550;78;21130;-59
2021/03/14 09:40:53;;;;;;;16.57;10.32;;;;;;;4.76;83.32;98355.77;1826429;78;21315;-61
2021/03/14 09:43:28;;;;;;;17.17;10.68;;;;;;;4.71;83.84;98317.31;1827719;78;21304;-59
2021/03/14 09:46:03;;;;;;;16.95;10.60;;;;;;;4.78;83.70;98337.47;1787691;78;21115;-63
2021/03/14 09:48:34;;;;;;;17.30;12.03;;;;;;;4.75;83.64;98316.95;1827383;77;21576;-66
2021/03/14 09:51:10;;;;;;;15.63;10.48;;;;;;;4.88;83.62;98332.16;1827886;78;21541;-61
2021/03/14 09:53:41;;;;;;;15.53;10.08;;;;;;;5.00;83.16;98324.78;1827827;78;21107;-59
2021/03/14 09:56:14;;;;;;;16.05;9.75;;;;;;;5.11;82.50;98331.41;1826946;78;21106;-64
2021/03/14 09:59:04;;;;;;;15.50;9.93;;;;;;;5.15;82.38;98346.86;1827726;77;21158;-60
2021/03/14 10:01:38;;;;;;;16.30;10.32;;;;;;;5.28;81.90;98308.34;1825736;78;21134;-60
2021/03/14 10:04:06;;;;;;;17.55;11.83;;;;;;;5.24;81.68;98337.27;1827516;77;21295;-60
2021/03/14 10:06:39;;;;;;;16.23;10.85;;;;;;;5.08;82.23;98328.79;1827301;78;21149;-63
2021/03/14 10:09:25;;;;;;;16.52;10.95;;;;;;;5.13;82.05;98319.52;1827523;78;21149;-61
2021/03/14 10:11:55;;;;;;;13.80;10.20;;;;;;;5.13;82.05;98306.31;1807278;78;21138;-63
2021/03/14 10:14:25;;;;;;;15.85;10.53;;;;;;;5.02;82.38;98326.11;1827596;77;21159;-63
2021/03/14 10:16:53;;;;;;;15.13;10.82;;;;;;;4.94;82.43;98346.39;1827734;78;21269;-60
2021/03/14 10:19:22;;;;;;;16.60;10.93;;;;;;;4.73;83.24;98332.66;1827498;78;21153;-61
2021/03/14 10:21:50;;;;;;;16.00;11.15;;;;;;;4.78;83.42;98308.08;1807307;78;21170;-64
2021/03/14 10:24:31;;;;;;;16.62;10.32;;;;;;;4.78;82.96;98294.02;1826483;78;21560;-59
2021/03/14 10:27:10;;;;;;;15.35;10.32;;;;;;;4.79;82.97;98277.87;1827639;78;21129;-63
2021/03/14 10:29:44;;;;;;;15.50;10.30;;;;;;;4.79;83.06;98326.44;1825891;78;21177;-60
2021/03/14 10:32:29;;;;;;;14.78;10.93;;;;;;;4.89;82.99;98307.92;1826977;77;21099;-64
2021/03/14 10:35:04;;;;;;;15.80;10.90;;;;;;;5.00;82.32;98324.36;1827585;77;21320;-63
2021/03/14 10:37:37;;;;;;;17.37;11.20;;;;;;;4.80;82.86;98306.42;1826904;78;21099;-62
2021/03/14 10:40:15;;;;;;;17.85;11.90;;;;;;;4.82;83.05;98315.42;1826768;78;21688;-68
2021/03/14 10:42:50;;;;;;;16.60;11.40;;;;;;;4.76;83.29;98273.97;1827192;78;21110;-59
2021/03/14 10:45:23;;;;;;;18.37;11.95;;;;;;;4.83;83.47;98303.08;1826764;78;21256;-63
2021/03/14 10:48:02;;;;;;;17.27;11.78;;;;;;;4.94;83.27;98307.61;1827011;77;21130;-63
2021/03/14 10:50:34;;;;;;;18.62;12.50;;;;;;;5.02;82.79;98295.00;1827002;78;21264;-62
2021/03/14 10:53:15;;;;;;;18.45;13.43;;;;;;;5.00;82.59;98269.80;1825959;78;21569;-67
2021/03/14 10:55:46;;;;;;;;;;;;;;;4.83;83.10;98299.24;1827591;78;21257;-61
2021/03/14 10:58:19;;;;;;;18.05;11.93;;;;;;;4.67;83.56;98289.94;1827467;77;20499;-59
2021/03/14 11:01:07;;;;;;;19.20;12.75;;;;;;;4.66;84.10;98284.81;1826473;78;21141;-61
2021/03/14 11:03:40;;;;;;;19.95;13.38;;;;;;;4.75;84.03;98299.92;1827053;78;21134;-60
2021/03/14 11:06:24;;;;;;;19.62;13.00;;;;;;;4.91;84.01;98282.38;1826748;78;21885;-63
2021/03/14 11:09:10;;;;;;;21.68;14.45;;;;;;;5.08;83.06;98259.74;1827148;78;21130;-66
2021/03/14 11:11:45;;;;;;;20.85;12.90;;;;;;;4.92;83.12;98290.09;1827057;78;21103;-60
2021/03/14 11:14:34;;;;;;;23.38;14.45;;;;;;;4.76;83.43;98293.14;1808902;78;21166;-60
2021/03/14 11:17:14;;;;;;;20.48;13.98;;;;;;;4.61;84.15;98281.29;1786697;80;21272;-62
2021/03/14 11:19:48;;;;;;;21.57;14.35;;;;;;;4.53;84.60;98232.14;1768309;81;21577;-60
2021/03/14 11:22:20;;;;;;;21.77;14.43;;;;;;;4.61;84.75;98239.13;1757655;80;21146;-60
2021/03/14 11:24:51;;;;;;;22.15;13.62;;;;;;;4.64;84.42;98249.41;1764316;81;21324;-60
2021/03/14 11:27:20;;;;;;;24.43;15.48;;;;;;;4.53;84.67;98234.70;1743977;82;21122;-64
2021/03/14 11:29:49;;;;;;;25.45;16.05;;;;;;;4.44;85.05;98220.42;1812970;79;21135;-63
2021/03/14 11:32:19;;;;;;;23.15;15.32;;;;;;;4.53;85.21;98253.86;1811830;78;21261;-62
2021/03/14 11:34:54;;;;;;;27.42;16.15;;;;;;;4.65;84.76;98266.45;1811504;78;21147;-64
2021/03/14 11:37:42;;;;;;;22.40;14.70;;;;;;;4.65;84.76;98244.31;1813129;78;21139;-61
2021/03/14 11:40:13;;;;;;;26.70;16.77;;;;;;;4.78;84.74;98250.17;1810629;78;21727;-63
2021/03/14 11:42:43;;;;;;;28.05;14.95;;;;;;;4.86;84.16;98245.23;1812460;78;21127;-62
2021/03/14 11:45:29;;;;;;;25.80;17.52;;;;;;;4.78;84.22;98272.29;1812659;78;21249;-63
2021/03/14 11:47:57;;;;;;;25.62;15.65;;;;;;;4.66;84.92;98247.34;1812726;79;21264;-63
2021/03/14 11:50:30;;;;;;;30.17;17.60;;;;;;;4.81;84.73;98230.20;1791650;79;21135;-63
2021/03/14 11:52:58;;;;;;;24.40;14.40;;;;;;;4.90;84.24;98228.25;1812763;79;21167;-63
2021/03/14 11:55:28;;;;;;;28.47;17.70;;;;;;;4.73;84.66;98255.98;1812907;78;21491;-62